Rosebud, TX (76570)

12:51 PM CDT on April 26, 2015 (GMT -0500)
Mennonite Quarter Lott Tx | | Change Station
CLOSE
Current Station
Personal Weather Station
Location: Lott, TX
Elevation: 554 ft
Nearby Weather Stations

Elev 554 ft 31.21 °N, 97.03 °W | Updated 8 seconds ago

Mostly Cloudy
Mostly Cloudy
78.6 °F
Feels Like 81 °F
N
1.3
Wind Variable Wind from WSW
Gusts 2.5 mph

Today
High -- | Low -- °F
--% Chance of Precip.
Yesterday
High -- | Low -- °F
Precip. -- in
6:48 AM 8:03 PM
First Quarter, 57% visible
Pressure 29.69 in
Visibility 10.0 miles
Clouds Clear
Heat Index 81 °F
Dew Point 69 °F
Humidity 72%
Rainfall 0.00 in
Snow Depth Not available.
UV 2.0 out of 12
Pollen 8.70 out of 12
Air Quality Not available.
Flu Activity Local Activity
METAR KT35 261735Z AUTO 16006KT 10SM CLR 27/20 A2969 RMK AO2 T02680203

More Conditions Fewer Conditions

Pressure 29.69 in
Visibility 10.0 miles
Clouds Clear
Heat Index 81 °F
Dew Point 69 °F
Humidity 72%
Rainfall 0.00 in
Snow Depth Not available.
UV 2.0 out of 12
Pollen 8.70 out of 12
Air Quality Not available.
Flu Activity Local Activity
METAR KT35 261735Z AUTO 16006KT 10SM CLR 27/20 A2969 RMK AO2 T02680203

More Conditions Fewer Conditions

The full scope of the disaster following a powerful 7.8-magnitude earthquake in Nepal may not come into view for days, but global charities are already sending emergency aid. Click to see how you can help.
Nowcast | as of 10:39 am CDT on April 26, 2015

Scattered showers and isolated storms are developing southwest of a Graham to Hearne line. This activity will increase in coverage and intensity this afternoon. Severe thunderstorms capable of producing large hail...damaging winds...flash flooding...and isolated tornadoes will be possible this afternoon...primarily along and west of the Interstate 35 corridor. Elsewhere...skies will remain mostly clear with temperatures climbing into the low 80s over the next few hours.

×

10-Day Weather Forecast

Almanac

Astronomy

Apr. 26, 2015 Rise Set
Actual Time
Civil Twilight
Nautical Twilight
Astronomical Twilight
Moon
Length of Visible Light
Length of Day
Tomorrow will be .
, % of the Moon is Illuminated

Today's Extremes

State Highs State Lows

Community

WunderPhotos

Upload Photos

1,817,066 photos uploaded!

WunderBlogs® & News

Nearby

Air Quality

  Air Quality AQ Index Pollutant
Not available.

Snow Depth

Station Depth Elevation

Earthquake Activity

City Distance Mag. Time & Date
Minimum magnitude displayed is 2.5.

Coastal Water Temperatures

Place Temperature

Stations

Nearby Weather Stations

Station Location Temp. Windchill Dew Point Humidity Wind Precip. Elev Updated Type